Beeton, Utah
Current Conditions -  °F | °C
As of 10:55 PM on Thursday 27 Nov 2014 (Local Time) from KBMC Reporting Station
Clear Clear  
Wind Chill: 41°   Ceiling: Unl
Heat Index: 41°   Visibility: 10mi
Dew Point: 30°   Wind: 3mph
Humidity: 64%   Direction: 330°NNW
Pressure: 30.12"   Gusts: NA
Location:  41.7137°N, 112.087°W
Report Text: KBMC 280555Z AUTO 33003KT 10SM CLR 05/M01 A3012 RMK AO1 T00501012 10136 20038
Loading
Personal Weather Stations






























Interactive Weather Map New forecast layout! Learn more

10-Day Weather Forecast

Advertisements
Track Severe Weather on mobile